Franklin Reinauer — WCW8832 — position and weather

sailwx.info

Track history (hours):
 
Tides and Currents Weather Stations Pressure Air Temp Water Temp Dewpoint Dewpoint Depression Visibility Wind Speed Wind Dir Waves Ship Positions

Franklin Reinauer

Owner: REINAUER TRANSPORTATION CO.LLC., STATEN ISLAND, NY. More information available from US FCC via Universal Licensing System and Coast Guard Vessel Documentation Center.

Last reported at 2017-Nov-20 00:31 UTC. Time now 2017-Nov-20 13:57 UTC.
Position N 40°37' W 074°03'.

Length 24 m; draft 4 m.

Type: Tug. MMSI: 366725230.

Date/timePositionNaut miles runAvg speedWind from/ knotsBaromVisibWave heightAir tempDewpointWater temp
2017-Nov-20 00:31N 40°37' W 074°03'3 6.2
2017-Nov-20 00:00N 40°39' W 074°05'2 3.9
2017-Nov-19 23:30N 40°38' W 074°08'2 4.4
2017-Nov-19 23:00N 40°39' W 074°11'2 3.4
2017-Nov-19 22:29N 40°38' W 074°12'1 1.9
2017-Nov-19 22:00N 40°38' W 074°12'3 5.9
2017-Nov-19 21:30N 40°39' W 074°08'0 0.2
2017-Nov-19 20:59N 40°38' W 074°08'0 0.0
2017-Nov-19 20:30N 40°38' W 074°08'1 1.7
2017-Nov-19 20:00N 40°39' W 074°09'2 4.8
2017-Nov-19 19:30N 40°38' W 074°12'0 0.0
2017-Nov-19 19:00N 40°38' W 074°12'0 0.0
2017-Nov-19 18:30N 40°38' W 074°12'0 0.0
2017-Nov-19 18:00N 40°38' W 074°12'0 0.0
2017-Nov-19 17:27N 40°38' W 074°12'0 0.0
2017-Nov-19 17:00N 40°38' W 074°12'0 0.0
2017-Nov-19 16:29N 40°38' W 074°12'0 0.0
2017-Nov-19 16:00N 40°38' W 074°12'0 0.0
2017-Nov-19 15:28N 40°38' W 074°12'0 0.0
2017-Nov-19 14:52N 40°38' W 074°12'0 0.0
2017-Nov-19 14:30N 40°38' W 074°12'0 0.0
2017-Nov-19 13:59N 40°38' W 074°12'0 0.0
2017-Nov-19 13:28N 40°38' W 074°12'0 0.0
2017-Nov-19 12:59N 40°38' W 074°12'0 0.0
2017-Nov-19 12:29N 40°38' W 074°12'0 0.0
2017-Nov-19 12:00N 40°38' W 074°12'0 0.0
2017-Nov-19 11:30N 40°38' W 074°12'0 0.0
2017-Nov-19 11:00N 40°38' W 074°12'0 0.8
2017-Nov-19 10:30N 40°38' W 074°12'0 0.2
2017-Nov-19 10:00N 40°38' W 074°12'0 0.4
2017-Nov-19 09:30N 40°38' W 074°12'0 0.0
2017-Nov-19 09:00N 40°38' W 074°12'0 0.2
2017-Nov-19 08:22N 40°38' W 074°12'0 0.0
2017-Nov-19 07:58N 40°38' W 074°12'2 5.2
2017-Nov-19 07:30N 40°39' W 074°09'1 2.1
2017-Nov-19 06:59N 40°38' W 074°08'0 0.3
2017-Nov-19 06:30N 40°39' W 074°08'0 0.9
2017-Nov-19 06:00N 40°39' W 074°07'0 0.0
2017-Nov-19 05:30N 40°39' W 074°07'1 1.2
2017-Nov-19 04:59N 40°38' W 074°08'0 0.0
2017-Nov-19 04:30N 40°38' W 074°08'0 0.0
2017-Nov-19 03:59N 40°38' W 074°08'0 0.0
2017-Nov-19 03:26N 40°38' W 074°08'0 0.0
2017-Nov-19 03:00N 40°38' W 074°08'0 0.0
2017-Nov-19 02:30N 40°38' W 074°08'0 0.0
2017-Nov-19 02:00N 40°38' W 074°08'0 0.0
2017-Nov-19 01:30N 40°38' W 074°08'0 0.0
2017-Nov-19 01:00N 40°38' W 074°08'0 0.0
2017-Nov-19 00:28N 40°38' W 074°08'2 3.4
2017-Nov-19 00:00N 40°40' W 074°09'3 5.8
2017-Nov-18 23:30N 40°43' W 074°07'0 0.7
2017-Nov-18 23:00N 40°43' W 074°07'0 0.0
2017-Nov-18 22:30N 40°43' W 074°07'4 8.4
2017-Nov-18 22:00N 40°39' W 074°09'1 2.1
2017-Nov-18 21:30N 40°38' W 074°08'0 0.0
2017-Nov-18 21:00N 40°38' W 074°08'0 0.0
2017-Nov-18 20:30N 40°38' W 074°08'0 0.0
2017-Nov-18 19:55N 40°38' W 074°08'1 1.7
2017-Nov-18 19:30N 40°39' W 074°07'0 0.0
2017-Nov-18 19:00N 40°39' W 074°07'1 1.4
2017-Nov-18 18:30N 40°38' W 074°08'0 0.0
2017-Nov-18 18:00N 40°38' W 074°08'0 0.0
2017-Nov-18 17:30N 40°38' W 074°08'1 1.3
2017-Nov-18 17:00N 40°39' W 074°07'1 1.8
2017-Nov-18 16:29N 40°39' W 074°06'3 7.1
2017-Nov-18 16:00N 40°40' W 074°02'1 1.4
2017-Nov-18 15:31N 40°40' W 074°01'5 9.9
2017-Nov-18 15:00N 40°39' W 074°07'0 0.8
2017-Nov-18 14:30N 40°38' W 074°08'1 2.8
2017-Nov-18 14:00N 40°39' W 074°06'4 8.1
2017-Nov-18 13:30N 40°40' W 074°01'0 0.3
2017-Nov-18 13:00N 40°40' W 074°01'2 4.2
2017-Nov-18 12:30N 40°40' W 074°04'4 8.0
2017-Nov-18 12:01N 40°38' W 074°09'4 7.5
2017-Nov-18 11:30N 40°42' W 074°07'1 2.0
2017-Nov-18 11:00N 40°43' W 074°07'1 1.0
2017-Nov-18 10:31N 40°42' W 074°07'4 7.1
2017-Nov-18 10:00N 40°39' W 074°09'1 2.1
2017-Nov-18 09:30N 40°38' W 074°08'3 5.8
2017-Nov-18 09:01N 40°39' W 074°04'3 5.0
2017-Nov-18 08:30N 40°40' W 074°01'0 0.0
2017-Nov-18 08:00N 40°40' W 074°01'1 2.6
2017-Nov-18 07:30N 40°40' W 074°03'4 8.2
2017-Nov-18 07:00N 40°38' W 074°08'0 0.0
2017-Nov-18 06:30N 40°38' W 074°08'0 0.1
2017-Nov-18 06:00N 40°38' W 074°08'0 0.0
2017-Nov-18 05:30N 40°38' W 074°08'0 0.0
2017-Nov-18 05:00N 40°38' W 074°08'0 0.0
2017-Nov-18 04:30N 40°38' W 074°08'0 0.0
2017-Nov-18 03:56N 40°38' W 074°08'0 0.0
2017-Nov-18 03:30N 40°38' W 074°08'0 0.0
2017-Nov-18 03:00N 40°38' W 074°08'0 0.0
2017-Nov-18 02:30N 40°38' W 074°08'0 0.0
2017-Nov-18 02:00N 40°38' W 074°08'3 5.5
2017-Nov-18 01:30N 40°39' W 074°11'3 5.2
2017-Nov-18 01:00N 40°36' W 074°12'1 1.6
2017-Nov-18 00:30N 40°37' W 074°12'4 7.4
2017-Nov-18 00:00N 40°39' W 074°08'0 0.6
2017-Nov-17 23:30N 40°38' W 074°08'0 0.0
2017-Nov-17 23:01N 40°38' W 074°08'0 0.0
2017-Nov-17 22:29N 40°38' W 074°08'1 1.3
2017-Nov-17 22:00N 40°39' W 074°09'3 6.0
2017-Nov-17 21:30N 40°38' W 074°12'0 0.2
2017-Nov-17 21:00N 40°38' W 074°12'1 2.4
2017-Nov-17 20:30N 40°39' W 074°11'2 4.9
2017-Nov-17 20:00N 40°39' W 074°08'0 0.7
2017-Nov-17 19:30N 40°38' W 074°08'1 1.4
2017-Nov-17 19:00N 40°39' W 074°07'0 0.1
2017-Nov-17 18:30N 40°39' W 074°07'1 1.4
2017-Nov-17 18:00N 40°38' W 074°08'0 0.0
2017-Nov-17 17:30N 40°38' W 074°08'3 6.5
2017-Nov-17 17:00N 40°39' W 074°04'2 4.3
2017-Nov-17 16:30N 40°40' W 074°01'0 0.0
2017-Nov-17 16:00N 40°40' W 074°01'0 0.0
2017-Nov-17 15:30N 40°40' W 074°01'0 0.0
2017-Nov-17 15:00N 40°40' W 074°01'0 0.1
2017-Nov-17 14:30N 40°40' W 074°01'0 0.2
2017-Nov-17 14:00N 40°40' W 074°01'0 0.2
2017-Nov-17 13:30N 40°40' W 074°01'0 0.1
2017-Nov-17 13:01N 40°40' W 074°01'0 0.1
2017-Nov-17 12:30N 40°40' W 074°01'0 0.1
2017-Nov-17 12:00N 40°40' W 074°01'0 0.0
2017-Nov-17 11:30N 40°40' W 074°01'0 0.0
2017-Nov-17 11:00N 40°40' W 074°01'0 0.0
2017-Nov-17 10:30N 40°40' W 074°01'0 0.0
2017-Nov-17 10:00N 40°40' W 074°01'0 0.0
2017-Nov-17 09:30N 40°40' W 074°01'2 3.2
2017-Nov-17 09:00N 40°42' W 074°02'611.1
2017-Nov-17 08:30N 40°47' W 073°60'611.6
2017-Nov-17 08:00N 40°52' W 073°56'6 0.3
2017-Nov-16 11:18N 40°58' W 073°54'3 8.9
2017-Nov-16 11:00N 40°55' W 073°55'4 8.6
2017-Nov-16 10:30N 40°51' W 073°57'4 8.2
2017-Nov-16 10:00N 40°48' W 073°59'4 7.7
2017-Nov-16 09:30N 40°44' W 074°01'4 7.2
2017-Nov-16 09:00N 40°41' W 074°03'3 5.9
2017-Nov-16 08:30N 40°39' W 074°06'2 4.7
2017-Nov-16 08:00N 40°39' W 074°09'3 6.6
2017-Nov-16 07:30N 40°42' W 074°07'1 1.2
2017-Nov-16 07:00N 40°43' W 074°07'2 4.2
2017-Nov-16 06:30N 40°41' W 074°08'2 4.8
2017-Nov-16 06:00N 40°39' W 074°06'4 7.7
2017-Nov-16 05:30N 40°40' W 074°01'0 0.3
2017-Nov-16 05:00N 40°40' W 074°01'0 0.2
2017-Nov-16 04:30N 40°40' W 074°01'3 6.0
2017-Nov-16 04:00N 40°39' W 074°05'4 8.3
2017-Nov-16 03:30N 40°39' W 074°10'3 4.6
2017-Nov-16 02:53N 40°36' W 074°12'0 0.0
2017-Nov-16 02:30N 40°36' W 074°12'0 0.0
2017-Nov-16 02:00N 40°36' W 074°12'1 2.3
2017-Nov-16 01:30N 40°38' W 074°12'1 2.4
2017-Nov-16 01:00N 40°36' W 074°12'3 3.1
2017-Nov-15 23:58N 40°33' W 074°14'0 0.0
2017-Nov-15 23:11N 40°33' W 074°14'0 0.1
2017-Nov-15 23:00N 40°33' W 074°14'0 0.2
2017-Nov-15 22:30N 40°34' W 074°14'0 0.0
2017-Nov-15 22:00N 40°34' W 074°14'1 1.5
2017-Nov-15 21:28N 40°33' W 074°15'0 0.0
2017-Nov-15 20:50N 40°33' W 074°15'2 4.6
2017-Nov-15 20:27N 40°34' W 074°13'4 8.7
2017-Nov-15 20:00N 40°38' W 074°12'3 6.9
2017-Nov-15 19:30N 40°38' W 074°08'0 0.0
2017-Nov-15 19:00N 40°38' W 074°08'0 0.0
2017-Nov-15 18:27N 40°38' W 074°08'0 0.0
2017-Nov-15 18:00N 40°38' W 074°08'0 0.0
2017-Nov-15 17:30N 40°38' W 074°08'0 0.0
2017-Nov-15 16:59N 40°38' W 074°08'3 7.1
2017-Nov-15 16:30N 40°42' W 074°07'1 1.4
2017-Nov-15 16:00N 40°43' W 074°07'0 0.8
2017-Nov-15 15:30N 40°42' W 074°07'3 6.6
2017-Nov-15 15:00N 40°39' W 074°09'3 5.4
2017-Nov-15 14:30N 40°39' W 074°05'3 6.9
2017-Nov-15 14:00N 40°40' W 074°01'2 3.3
2017-Nov-15 13:30N 40°40' W 074°03'5 9.4
2017-Nov-15 13:00N 40°39' W 074°09'3 6.3
2017-Nov-15 12:29N 40°36' W 074°12'0 0.1
2017-Nov-15 09:39N 40°36' W 074°12'1 3.6
2017-Nov-15 09:30N 40°35' W 074°12'3 5.8
2017-Nov-15 08:58N 40°33' W 074°15'0 0.4
2017-Nov-15 08:30N 40°33' W 074°15'3 5.4
2017-Nov-15 07:59N 40°35' W 074°13'3 6.0
2017-Nov-15 07:30N 40°38' W 074°12'0 0.8
2017-Nov-15 07:00N 40°38' W 074°12'1 2.7
2017-Nov-15 06:30N 40°37' W 074°12'0 0.0
2017-Nov-15 06:00N 40°37' W 074°12'0 0.0
2017-Nov-15 05:30N 40°37' W 074°12'0 0.0
2017-Nov-15 05:00N 40°37' W 074°12'0 0.0
2017-Nov-15 04:30N 40°37' W 074°12'0 0.0
2017-Nov-15 04:00N 40°37' W 074°12'0 0.0
2017-Nov-15 03:30N 40°37' W 074°12'0 0.4
2017-Nov-15 03:01N 40°36' W 074°12'0 0.1
2017-Nov-15 02:30N 40°36' W 074°12'0 0.3
2017-Nov-15 01:59N 40°37' W 074°12'0 0.0
2017-Nov-15 01:30N 40°37' W 074°12'1 1.7
2017-Nov-15 00:57N 40°38' W 074°12'0 1.0
2017-Nov-15 00:30N 40°38' W 074°12'1 2.1
2017-Nov-15 00:00N 40°39' W 074°11'3 5.3
2017-Nov-14 23:30N 40°38' W 074°08'0 0.0
2017-Nov-14 23:00N 40°38' W 074°08'0 0.0
2017-Nov-14 22:30N 40°38' W 074°08'0 0.0
2017-Nov-14 22:00N 40°38' W 074°08'0 0.0
2017-Nov-14 21:30N 40°38' W 074°08'0 0.0
2017-Nov-14 21:00N 40°38' W 074°08'0 0.0
2017-Nov-14 20:30N 40°38' W 074°08'0 0.0
2017-Nov-14 20:00N 40°38' W 074°08'0 0.0
2017-Nov-14 19:29N 40°38' W 074°08'0 0.0
2017-Nov-14 19:00N 40°38' W 074°08'0 0.0
2017-Nov-14 18:29N 40°38' W 074°08'0 0.0
2017-Nov-14 18:00N 40°38' W 074°08'0 0.0
2017-Nov-14 17:30N 40°38' W 074°08'0 0.0
2017-Nov-14 17:00N 40°38' W 074°08'1 2.0
2017-Nov-14 16:30N 40°39' W 074°07'0 0.8
2017-Nov-14 16:00N 40°39' W 074°06'0 0.1
2017-Nov-14 15:30N 40°39' W 074°06'4 7.4
2017-Nov-14 15:00N 40°40' W 074°02'1 1.4
2017-Nov-14 14:30N 40°40' W 074°01'0 0.0
2017-Nov-14 14:00N 40°40' W 074°01'0 0.0
2017-Nov-14 13:30N 40°40' W 074°01'0 0.0
2017-Nov-14 13:00N 40°40' W 074°01'0 0.0
2017-Nov-14 12:30N 40°40' W 074°01'0 0.0
2017-Nov-14 12:01N 40°40' W 074°01'0 0.1
2017-Nov-14 11:30N 40°40' W 074°01'0 0.2
2017-Nov-14 11:00N 40°40' W 074°01'0 0.0
2017-Nov-14 10:30N 40°40' W 074°01'0 0.0
2017-Nov-14 10:00N 40°40' W 074°01'0 0.3
2017-Nov-14 09:30N 40°40' W 074°01'0 0.1
2017-Nov-14 09:00N 40°40' W 074°01'3 5.1
2017-Nov-14 08:30N 40°39' W 074°04'3 5.6
2017-Nov-14 08:00N 40°39' W 074°08'0 0.2
2017-Nov-14 07:30N 40°38' W 074°08'0 0.1
2017-Nov-14 07:00N 40°38' W 074°08'0 0.0
2017-Nov-14 06:30N 40°38' W 074°08'0 0.0
2017-Nov-14 06:00N 40°38' W 074°08'1 1.7
2017-Nov-14 05:30N 40°39' W 074°07'1 1.7
2017-Nov-14 05:00N 40°39' W 074°08'2 4.8
2017-Nov-14 04:31N 40°39' W 074°05'3 6.0
2017-Nov-14 04:01N 40°40' W 074°01'0 0.0
2017-Nov-14 03:30N 40°40' W 074°01'0 0.0
2017-Nov-14 03:00N 40°40' W 074°01'0 0.0
2017-Nov-14 02:30N 40°40' W 074°01'0 0.0
2017-Nov-14 02:00N 40°40' W 074°01'0 0.0
2017-Nov-14 01:30N 40°40' W 074°01'0 0.0
2017-Nov-14 01:01N 40°40' W 074°01'0 0.0
2017-Nov-14 00:30N 40°40' W 074°01'0 0.0
2017-Nov-14 00:01N 40°40' W 074°01'0 0.0
2017-Nov-13 23:30N 40°40' W 074°01'0 0.0
2017-Nov-13 23:00N 40°40' W 074°01'0 0.0
2017-Nov-13 22:30N 40°40' W 074°01'0 0.0
2017-Nov-13 22:00N 40°40' W 074°01'13 0.7
2017-Nov-13 01:55N 40°32' W 074°15'0 0.0
2017-Nov-13 01:30N 40°32' W 074°15'0 0.0
2017-Nov-13 01:00N 40°32' W 074°15'0 0.0
2017-Nov-13 00:02N 40°32' W 074°15'0 0.0
2017-Nov-12 23:54N 40°32' W 074°15'0 0.0
2017-Nov-12 23:30N 40°32' W 074°15'0 0.0
2017-Nov-12 22:53N 40°32' W 074°15'0 0.0
2017-Nov-12 22:30N 40°32' W 074°15'0 0.0
2017-Nov-12 22:00N 40°32' W 074°15'0 0.0
2017-Nov-12 21:28N 40°32' W 074°15'0 0.0
2017-Nov-12 21:00N 40°32' W 074°15'0 0.0
2017-Nov-12 19:32N 40°32' W 074°15'0 0.0
2017-Nov-12 19:27N 40°32' W 074°15'0 0.0
2017-Nov-12 18:17N 40°32' W 074°15'0 0.0
2017-Nov-12 18:00N 40°32' W 074°15'0 0.0
2017-Nov-12 17:29N 40°32' W 074°15'0 0.0
2017-Nov-12 15:31N 40°32' W 074°15'0 0.0
2017-Nov-12 15:29N 40°32' W 074°15'0 0.0
2017-Nov-12 14:59N 40°32' W 074°15'0 0.0
2017-Nov-12 14:29N 40°32' W 074°15'0 0.0
2017-Nov-12 14:00N 40°32' W 074°15'0 0.0
2017-Nov-12 13:29N 40°32' W 074°15'0 0.0
2017-Nov-12 13:00N 40°32' W 074°15'0 0.0
2017-Nov-12 12:30N 40°32' W 074°15'0 0.0
2017-Nov-12 12:00N 40°32' W 074°15'0 0.5
2017-Nov-12 11:30N 40°33' W 074°15'0 0.1
2017-Nov-12 10:44N 40°32' W 074°15'0 1.3
2017-Nov-12 10:24N 40°33' W 074°15'0 0.8
2017-Nov-12 09:50N 40°32' W 074°15'2 4.8
2017-Nov-12 09:23N 40°34' W 074°13'3 8.2
2017-Nov-12 09:00N 40°37' W 074°12'3 6.4
2017-Nov-12 08:30N 40°39' W 074°09'1 2.7
2017-Nov-12 08:00N 40°39' W 074°07'1 1.4
2017-Nov-12 07:30N 40°38' W 074°08'0 0.0
2017-Nov-12 07:00N 40°38' W 074°08'0 0.0
2017-Nov-12 06:30N 40°38' W 074°08'0 0.0
2017-Nov-12 06:00N 40°38' W 074°08'0 0.0
2017-Nov-12 05:30N 40°38' W 074°08'0 0.0
2017-Nov-12 05:00N 40°38' W 074°08'0 0.0
2017-Nov-12 04:30N 40°38' W 074°08'0 0.0
2017-Nov-12 03:59N 40°38' W 074°08'0 0.0
2017-Nov-12 03:30N 40°38' W 074°08'0 0.0
2017-Nov-12 03:00N 40°38' W 074°08'0 0.0
2017-Nov-12 02:20N 40°38' W 074°08'0 0.0
2017-Nov-12 01:06N 40°38' W 074°08'0 0.4
2017-Nov-12 00:59N 40°38' W 074°08'4 7.4
2017-Nov-12 00:30N 40°40' W 074°03'2 3.7
2017-Nov-12 00:00N 40°40' W 074°01'0 0.1
2017-Nov-11 23:31N 40°40' W 074°01'0 0.2
2017-Nov-11 23:01N 40°40' W 074°01'0 0.0
2017-Nov-11 22:30N 40°40' W 074°01'0 0.0
2017-Nov-11 22:00N 40°40' W 074°01'0 0.6
2017-Nov-11 21:30N 40°40' W 074°01'4 8.5
2017-Nov-11 21:00N 40°39' W 074°07'2 5.0
2017-Nov-11 20:30N 40°41' W 074°08'1 2.7
2017-Nov-11 20:00N 40°42' W 074°07'0 0.9
2017-Nov-11 19:30N 40°43' W 074°07'0 0.0
2017-Nov-11 19:00N 40°43' W 074°07'1 1.0
2017-Nov-11 18:30N 40°42' W 074°07'1 1.4
2017-Nov-11 18:00N 40°43' W 074°07'0 0.1
2017-Nov-11 17:30N 40°43' W 074°07'0 0.2
2017-Nov-11 17:01N 40°43' W 074°07'0 0.0
2017-Nov-11 16:30N 40°43' W 074°07'0 0.0
2017-Nov-11 16:00N 40°43' W 074°07'0 0.9
2017-Nov-11 15:30N 40°42' W 074°07'2 4.3
2017-Nov-11 15:00N 40°40' W 074°08'2 4.4
2017-Nov-11 14:30N 40°39' W 074°06'3 6.1
2017-Nov-11 14:00N 40°37' W 074°03'3 6.1
2017-Nov-11 13:30N 40°34' W 074°01'3 6.3
2017-Nov-11 13:00N 40°34' W 073°57'5 7.5
2017-Nov-11 12:19N 40°35' W 073°50'2 3.6
2017-Nov-11 11:50N 40°36' W 073°48'3 0.1
2017-Nov-10 10:50N 40°38' W 073°45'4 5.9
2017-Nov-10 10:11N 40°36' W 073°49'1 6.1
2017-Nov-10 10:00N 40°35' W 073°50'3 6.0
2017-Nov-10 09:30N 40°34' W 073°54'3 5.9
2017-Nov-10 08:59N 40°34' W 073°58'3 6.8
2017-Nov-10 08:30N 40°35' W 074°02'4 8.2
2017-Nov-10 08:00N 40°39' W 074°05'4 8.4
2017-Nov-10 07:30N 40°39' W 074°10'3 6.3
2017-Nov-10 06:57N 40°36' W 074°12'4 1.4
2017-Nov-10 03:55N 40°32' W 074°15'2 4.7
2017-Nov-10 03:24N 40°34' W 074°13'1 3.6
2017-Nov-10 02:59N 40°35' W 074°12'0 0.0
2017-Nov-10 02:29N 40°35' W 074°12'0 0.8
2017-Nov-10 01:53N 40°36' W 074°12'0 0.0
2017-Nov-10 01:24N 40°36' W 074°12'0 0.0
2017-Nov-10 01:00N 40°36' W 074°12'  
Track history (hours):
 
Tides and Currents Weather Stations Pressure Air Temp Water Temp Dewpoint Dewpoint Depression Visibility Wind Speed Wind Dir Waves Ship Positions

Franklin Reinauer

Owner: REINAUER TRANSPORTATION CO.LLC., STATEN ISLAND, NY. More information available from US FCC via Universal Licensing System and Coast Guard Vessel Documentation Center.

Last reported at 2017-Nov-20 00:31 UTC. Time now 2017-Nov-20 13:57 UTC.
Position N 40°37' W 074°03'.

Length 24 m; draft 4 m.

Type: Tug. MMSI: 366725230.

Date/timePositionNaut miles runAvg speedWind from/ knotsBaromVisibWave heightAir tempDewpointWater temp
2017-Nov-20 00:31N 40°37' W 074°03'3 6.2
2017-Nov-20 00:00N 40°39' W 074°05'2 3.9
2017-Nov-19 23:30N 40°38' W 074°08'2 4.4
2017-Nov-19 23:00N 40°39' W 074°11'2 3.4
2017-Nov-19 22:29N 40°38' W 074°12'1 1.9
2017-Nov-19 22:00N 40°38' W 074°12'3 5.9
2017-Nov-19 21:30N 40°39' W 074°08'0 0.2
2017-Nov-19 20:59N 40°38' W 074°08'0 0.0
2017-Nov-19 20:30N 40°38' W 074°08'1 1.7
2017-Nov-19 20:00N 40°39' W 074°09'2 4.8
2017-Nov-19 19:30N 40°38' W 074°12'0 0.0
2017-Nov-19 19:00N 40°38' W 074°12'0 0.0
2017-Nov-19 18:30N 40°38' W 074°12'0 0.0
2017-Nov-19 18:00N 40°38' W 074°12'0 0.0
2017-Nov-19 17:27N 40°38' W 074°12'0 0.0
2017-Nov-19 17:00N 40°38' W 074°12'0 0.0
2017-Nov-19 16:29N 40°38' W 074°12'0 0.0
2017-Nov-19 16:00N 40°38' W 074°12'0 0.0
2017-Nov-19 15:28N 40°38' W 074°12'0 0.0
2017-Nov-19 14:52N 40°38' W 074°12'0 0.0
2017-Nov-19 14:30N 40°38' W 074°12'0 0.0
2017-Nov-19 13:59N 40°38' W 074°12'0 0.0
2017-Nov-19 13:28N 40°38' W 074°12'0 0.0
2017-Nov-19 12:59N 40°38' W 074°12'0 0.0
2017-Nov-19 12:29N 40°38' W 074°12'0 0.0
2017-Nov-19 12:00N 40°38' W 074°12'0 0.0
2017-Nov-19 11:30N 40°38' W 074°12'0 0.0
2017-Nov-19 11:00N 40°38' W 074°12'0 0.8
2017-Nov-19 10:30N 40°38' W 074°12'0 0.2
2017-Nov-19 10:00N 40°38' W 074°12'0 0.4
2017-Nov-19 09:30N 40°38' W 074°12'0 0.0
2017-Nov-19 09:00N 40°38' W 074°12'0 0.2
2017-Nov-19 08:22N 40°38' W 074°12'0 0.0
2017-Nov-19 07:58N 40°38' W 074°12'2 5.2
2017-Nov-19 07:30N 40°39' W 074°09'1 2.1
2017-Nov-19 06:59N 40°38' W 074°08'0 0.3
2017-Nov-19 06:30N 40°39' W 074°08'0 0.9
2017-Nov-19 06:00N 40°39' W 074°07'0 0.0
2017-Nov-19 05:30N 40°39' W 074°07'1 1.2
2017-Nov-19 04:59N 40°38' W 074°08'0 0.0
2017-Nov-19 04:30N 40°38' W 074°08'0 0.0
2017-Nov-19 03:59N 40°38' W 074°08'0 0.0
2017-Nov-19 03:26N 40°38' W 074°08'0 0.0
2017-Nov-19 03:00N 40°38' W 074°08'0 0.0
2017-Nov-19 02:30N 40°38' W 074°08'0 0.0
2017-Nov-19 02:00N 40°38' W 074°08'0 0.0
2017-Nov-19 01:30N 40°38' W 074°08'0 0.0
2017-Nov-19 01:00N 40°38' W 074°08'0 0.0
2017-Nov-19 00:28N 40°38' W 074°08'2 3.4
2017-Nov-19 00:00N 40°40' W 074°09'3 5.8
2017-Nov-18 23:30N 40°43' W 074°07'0 0.7
2017-Nov-18 23:00N 40°43' W 074°07'0 0.0
2017-Nov-18 22:30N 40°43' W 074°07'4 8.4
2017-Nov-18 22:00N 40°39' W 074°09'1 2.1
2017-Nov-18 21:30N 40°38' W 074°08'0 0.0
2017-Nov-18 21:00N 40°38' W 074°08'0 0.0
2017-Nov-18 20:30N 40°38' W 074°08'0 0.0
2017-Nov-18 19:55N 40°38' W 074°08'1 1.7
2017-Nov-18 19:30N 40°39' W 074°07'0 0.0
2017-Nov-18 19:00N 40°39' W 074°07'1 1.4
2017-Nov-18 18:30N 40°38' W 074°08'0 0.0
2017-Nov-18 18:00N 40°38' W 074°08'0 0.0
2017-Nov-18 17:30N 40°38' W 074°08'1 1.3
2017-Nov-18 17:00N 40°39' W 074°07'1 1.8
2017-Nov-18 16:29N 40°39' W 074°06'3 7.1
2017-Nov-18 16:00N 40°40' W 074°02'1 1.4
2017-Nov-18 15:31N 40°40' W 074°01'5 9.9
2017-Nov-18 15:00N 40°39' W 074°07'0 0.8
2017-Nov-18 14:30N 40°38' W 074°08'1 2.8
2017-Nov-18 14:00N 40°39' W 074°06'4 8.1
2017-Nov-18 13:30N 40°40' W 074°01'0 0.3
2017-Nov-18 13:00N 40°40' W 074°01'2 4.2
2017-Nov-18 12:30N 40°40' W 074°04'4 8.0
2017-Nov-18 12:01N 40°38' W 074°09'4 7.5
2017-Nov-18 11:30N 40°42' W 074°07'1 2.0
2017-Nov-18 11:00N 40°43' W 074°07'1 1.0
2017-Nov-18 10:31N 40°42' W 074°07'4 7.1
2017-Nov-18 10:00N 40°39' W 074°09'1 2.1
2017-Nov-18 09:30N 40°38' W 074°08'3 5.8
2017-Nov-18 09:01N 40°39' W 074°04'3 5.0
2017-Nov-18 08:30N 40°40' W 074°01'0 0.0
2017-Nov-18 08:00N 40°40' W 074°01'1 2.6
2017-Nov-18 07:30N 40°40' W 074°03'4 8.2
2017-Nov-18 07:00N 40°38' W 074°08'0 0.0
2017-Nov-18 06:30N 40°38' W 074°08'0 0.1
2017-Nov-18 06:00N 40°38' W 074°08'0 0.0
2017-Nov-18 05:30N 40°38' W 074°08'0 0.0
2017-Nov-18 05:00N 40°38' W 074°08'0 0.0
2017-Nov-18 04:30N 40°38' W 074°08'0 0.0
2017-Nov-18 03:56N 40°38' W 074°08'0 0.0
2017-Nov-18 03:30N 40°38' W 074°08'0 0.0
2017-Nov-18 03:00N 40°38' W 074°08'0 0.0
2017-Nov-18 02:30N 40°38' W 074°08'0 0.0
2017-Nov-18 02:00N 40°38' W 074°08'3 5.5
2017-Nov-18 01:30N 40°39' W 074°11'3 5.2
2017-Nov-18 01:00N 40°36' W 074°12'1 1.6
2017-Nov-18 00:30N 40°37' W 074°12'4 7.4
2017-Nov-18 00:00N 40°39' W 074°08'0 0.6
2017-Nov-17 23:30N 40°38' W 074°08'0 0.0
2017-Nov-17 23:01N 40°38' W 074°08'0 0.0
2017-Nov-17 22:29N 40°38' W 074°08'1 1.3
2017-Nov-17 22:00N 40°39' W 074°09'3 6.0
2017-Nov-17 21:30N 40°38' W 074°12'0 0.2
2017-Nov-17 21:00N 40°38' W 074°12'1 2.4
2017-Nov-17 20:30N 40°39' W 074°11'2 4.9
2017-Nov-17 20:00N 40°39' W 074°08'0 0.7
2017-Nov-17 19:30N 40°38' W 074°08'1 1.4
2017-Nov-17 19:00N 40°39' W 074°07'0 0.1
2017-Nov-17 18:30N 40°39' W 074°07'1 1.4
2017-Nov-17 18:00N 40°38' W 074°08'0 0.0
2017-Nov-17 17:30N 40°38' W 074°08'3 6.5
2017-Nov-17 17:00N 40°39' W 074°04'2 4.3
2017-Nov-17 16:30N 40°40' W 074°01'0 0.0
2017-Nov-17 16:00N 40°40' W 074°01'0 0.0
2017-Nov-17 15:30N 40°40' W 074°01'0 0.0
2017-Nov-17 15:00N 40°40' W 074°01'0 0.1
2017-Nov-17 14:30N 40°40' W 074°01'0 0.2
2017-Nov-17 14:00N 40°40' W 074°01'0 0.2
2017-Nov-17 13:30N 40°40' W 074°01'0 0.1
2017-Nov-17 13:01N 40°40' W 074°01'0 0.1
2017-Nov-17 12:30N 40°40' W 074°01'0 0.1
2017-Nov-17 12:00N 40°40' W 074°01'0 0.0
2017-Nov-17 11:30N 40°40' W 074°01'0 0.0
2017-Nov-17 11:00N 40°40' W 074°01'0 0.0
2017-Nov-17 10:30N 40°40' W 074°01'0 0.0
2017-Nov-17 10:00N 40°40' W 074°01'0 0.0
2017-Nov-17 09:30N 40°40' W 074°01'2 3.2
2017-Nov-17 09:00N 40°42' W 074°02'611.1
2017-Nov-17 08:30N 40°47' W 073°60'611.6
2017-Nov-17 08:00N 40°52' W 073°56'6 0.3
2017-Nov-16 11:18N 40°58' W 073°54'3 8.9
2017-Nov-16 11:00N 40°55' W 073°55'4 8.6
2017-Nov-16 10:30N 40°51' W 073°57'4 8.2
2017-Nov-16 10:00N 40°48' W 073°59'4 7.7
2017-Nov-16 09:30N 40°44' W 074°01'4 7.2
2017-Nov-16 09:00N 40°41' W 074°03'3 5.9
2017-Nov-16 08:30N 40°39' W 074°06'2 4.7
2017-Nov-16 08:00N 40°39' W 074°09'3 6.6
2017-Nov-16 07:30N 40°42' W 074°07'1 1.2
2017-Nov-16 07:00N 40°43' W 074°07'2 4.2
2017-Nov-16 06:30N 40°41' W 074°08'2 4.8
2017-Nov-16 06:00N 40°39' W 074°06'4 7.7
2017-Nov-16 05:30N 40°40' W 074°01'0 0.3
2017-Nov-16 05:00N 40°40' W 074°01'0 0.2
2017-Nov-16 04:30N 40°40' W 074°01'3 6.0
2017-Nov-16 04:00N 40°39' W 074°05'4 8.3
2017-Nov-16 03:30N 40°39' W 074°10'3 4.6
2017-Nov-16 02:53N 40°36' W 074°12'0 0.0
2017-Nov-16 02:30N 40°36' W 074°12'0 0.0
2017-Nov-16 02:00N 40°36' W 074°12'1 2.3
2017-Nov-16 01:30N 40°38' W 074°12'1 2.4
2017-Nov-16 01:00N 40°36' W 074°12'3 3.1
2017-Nov-15 23:58N 40°33' W 074°14'0 0.0
2017-Nov-15 23:11N 40°33' W 074°14'0 0.1
2017-Nov-15 23:00N 40°33' W 074°14'0 0.2
2017-Nov-15 22:30N 40°34' W 074°14'0 0.0
2017-Nov-15 22:00N 40°34' W 074°14'1 1.5
2017-Nov-15 21:28N 40°33' W 074°15'0 0.0
2017-Nov-15 20:50N 40°33' W 074°15'2 4.6
2017-Nov-15 20:27N 40°34' W 074°13'4 8.7
2017-Nov-15 20:00N 40°38' W 074°12'3 6.9
2017-Nov-15 19:30N 40°38' W 074°08'0 0.0
2017-Nov-15 19:00N 40°38' W 074°08'0 0.0
2017-Nov-15 18:27N 40°38' W 074°08'0 0.0
2017-Nov-15 18:00N 40°38' W 074°08'0 0.0
2017-Nov-15 17:30N 40°38' W 074°08'0 0.0
2017-Nov-15 16:59N 40°38' W 074°08'3 7.1
2017-Nov-15 16:30N 40°42' W 074°07'1 1.4
2017-Nov-15 16:00N 40°43' W 074°07'0 0.8
2017-Nov-15 15:30N 40°42' W 074°07'3 6.6
2017-Nov-15 15:00N 40°39' W 074°09'3 5.4
2017-Nov-15 14:30N 40°39' W 074°05'3 6.9
2017-Nov-15 14:00N 40°40' W 074°01'2 3.3
2017-Nov-15 13:30N 40°40' W 074°03'5 9.4
2017-Nov-15 13:00N 40°39' W 074°09'3 6.3
2017-Nov-15 12:29N 40°36' W 074°12'0 0.1
2017-Nov-15 09:39N 40°36' W 074°12'1 3.6
2017-Nov-15 09:30N 40°35' W 074°12'3 5.8
2017-Nov-15 08:58N 40°33' W 074°15'0 0.4
2017-Nov-15 08:30N 40°33' W 074°15'3 5.4
2017-Nov-15 07:59N 40°35' W 074°13'3 6.0
2017-Nov-15 07:30N 40°38' W 074°12'0 0.8
2017-Nov-15 07:00N 40°38' W 074°12'1 2.7
2017-Nov-15 06:30N 40°37' W 074°12'0 0.0
2017-Nov-15 06:00N 40°37' W 074°12'0 0.0
2017-Nov-15 05:30N 40°37' W 074°12'0 0.0
2017-Nov-15 05:00N 40°37' W 074°12'0 0.0
2017-Nov-15 04:30N 40°37' W 074°12'0 0.0
2017-Nov-15 04:00N 40°37' W 074°12'0 0.0
2017-Nov-15 03:30N 40°37' W 074°12'0 0.4
2017-Nov-15 03:01N 40°36' W 074°12'0 0.1
2017-Nov-15 02:30N 40°36' W 074°12'0 0.3
2017-Nov-15 01:59N 40°37' W 074°12'0 0.0
2017-Nov-15 01:30N 40°37' W 074°12'1 1.7
2017-Nov-15 00:57N 40°38' W 074°12'0 1.0
2017-Nov-15 00:30N 40°38' W 074°12'1 2.1
2017-Nov-15 00:00N 40°39' W 074°11'3 5.3
2017-Nov-14 23:30N 40°38' W 074°08'0 0.0
2017-Nov-14 23:00N 40°38' W 074°08'0 0.0
2017-Nov-14 22:30N 40°38' W 074°08'0 0.0
2017-Nov-14 22:00N 40°38' W 074°08'0 0.0
2017-Nov-14 21:30N 40°38' W 074°08'0 0.0
2017-Nov-14 21:00N 40°38' W 074°08'0 0.0
2017-Nov-14 20:30N 40°38' W 074°08'0 0.0
2017-Nov-14 20:00N 40°38' W 074°08'0 0.0
2017-Nov-14 19:29N 40°38' W 074°08'0 0.0
2017-Nov-14 19:00N 40°38' W 074°08'0 0.0
2017-Nov-14 18:29N 40°38' W 074°08'0 0.0
2017-Nov-14 18:00N 40°38' W 074°08'0 0.0
2017-Nov-14 17:30N 40°38' W 074°08'0 0.0
2017-Nov-14 17:00N 40°38' W 074°08'1 2.0
2017-Nov-14 16:30N 40°39' W 074°07'0 0.8
2017-Nov-14 16:00N 40°39' W 074°06'0 0.1
2017-Nov-14 15:30N 40°39' W 074°06'4 7.4
2017-Nov-14 15:00N 40°40' W 074°02'1 1.4
2017-Nov-14 14:30N 40°40' W 074°01'0 0.0
2017-Nov-14 14:00N 40°40' W 074°01'0 0.0
2017-Nov-14 13:30N 40°40' W 074°01'0 0.0
2017-Nov-14 13:00N 40°40' W 074°01'0 0.0
2017-Nov-14 12:30N 40°40' W 074°01'0 0.0
2017-Nov-14 12:01N 40°40' W 074°01'0 0.1
2017-Nov-14 11:30N 40°40' W 074°01'0 0.2
2017-Nov-14 11:00N 40°40' W 074°01'0 0.0
2017-Nov-14 10:30N 40°40' W 074°01'0 0.0
2017-Nov-14 10:00N 40°40' W 074°01'0 0.3
2017-Nov-14 09:30N 40°40' W 074°01'0 0.1
2017-Nov-14 09:00N 40°40' W 074°01'3 5.1
2017-Nov-14 08:30N 40°39' W 074°04'3 5.6
2017-Nov-14 08:00N 40°39' W 074°08'0 0.2
2017-Nov-14 07:30N 40°38' W 074°08'0 0.1
2017-Nov-14 07:00N 40°38' W 074°08'0 0.0
2017-Nov-14 06:30N 40°38' W 074°08'0 0.0
2017-Nov-14 06:00N 40°38' W 074°08'1 1.7
2017-Nov-14 05:30N 40°39' W 074°07'1 1.7
2017-Nov-14 05:00N 40°39' W 074°08'2 4.8
2017-Nov-14 04:31N 40°39' W 074°05'3 6.0
2017-Nov-14 04:01N 40°40' W 074°01'0 0.0
2017-Nov-14 03:30N 40°40' W 074°01'0 0.0
2017-Nov-14 03:00N 40°40' W 074°01'0 0.0
2017-Nov-14 02:30N 40°40' W 074°01'0 0.0
2017-Nov-14 02:00N 40°40' W 074°01'0 0.0
2017-Nov-14 01:30N 40°40' W 074°01'0 0.0
2017-Nov-14 01:01N 40°40' W 074°01'0 0.0
2017-Nov-14 00:30N 40°40' W 074°01'0 0.0
2017-Nov-14 00:01N 40°40' W 074°01'0 0.0
2017-Nov-13 23:30N 40°40' W 074°01'0 0.0
2017-Nov-13 23:00N 40°40' W 074°01'0 0.0
2017-Nov-13 22:30N 40°40' W 074°01'0 0.0
2017-Nov-13 22:00N 40°40' W 074°01'13 0.7
2017-Nov-13 01:55N 40°32' W 074°15'0 0.0
2017-Nov-13 01:30N 40°32' W 074°15'0 0.0
2017-Nov-13 01:00N 40°32' W 074°15'0 0.0
2017-Nov-13 00:02N 40°32' W 074°15'0 0.0
2017-Nov-12 23:54N 40°32' W 074°15'0 0.0
2017-Nov-12 23:30N 40°32' W 074°15'0 0.0
2017-Nov-12 22:53N 40°32' W 074°15'0 0.0
2017-Nov-12 22:30N 40°32' W 074°15'0 0.0
2017-Nov-12 22:00N 40°32' W 074°15'0 0.0
2017-Nov-12 21:28N 40°32' W 074°15'0 0.0
2017-Nov-12 21:00N 40°32' W 074°15'0 0.0
2017-Nov-12 19:32N 40°32' W 074°15'0 0.0
2017-Nov-12 19:27N 40°32' W 074°15'0 0.0
2017-Nov-12 18:17N 40°32' W 074°15'0 0.0
2017-Nov-12 18:00N 40°32' W 074°15'0 0.0
2017-Nov-12 17:29N 40°32' W 074°15'0 0.0
2017-Nov-12 15:31N 40°32' W 074°15'0 0.0
2017-Nov-12 15:29N 40°32' W 074°15'0 0.0
2017-Nov-12 14:59N 40°32' W 074°15'0 0.0
2017-Nov-12 14:29N 40°32' W 074°15'0 0.0
2017-Nov-12 14:00N 40°32' W 074°15'0 0.0
2017-Nov-12 13:29N 40°32' W 074°15'0 0.0
2017-Nov-12 13:00N 40°32' W 074°15'0 0.0
2017-Nov-12 12:30N 40°32' W 074°15'0 0.0
2017-Nov-12 12:00N 40°32' W 074°15'0 0.5
2017-Nov-12 11:30N 40°33' W 074°15'0 0.1
2017-Nov-12 10:44N 40°32' W 074°15'0 1.3
2017-Nov-12 10:24N 40°33' W 074°15'0 0.8
2017-Nov-12 09:50N 40°32' W 074°15'2 4.8
2017-Nov-12 09:23N 40°34' W 074°13'3 8.2
2017-Nov-12 09:00N 40°37' W 074°12'3 6.4
2017-Nov-12 08:30N 40°39' W 074°09'1 2.7
2017-Nov-12 08:00N 40°39' W 074°07'1 1.4
2017-Nov-12 07:30N 40°38' W 074°08'0 0.0
2017-Nov-12 07:00N 40°38' W 074°08'0 0.0
2017-Nov-12 06:30N 40°38' W 074°08'0 0.0
2017-Nov-12 06:00N 40°38' W 074°08'0 0.0
2017-Nov-12 05:30N 40°38' W 074°08'0 0.0
2017-Nov-12 05:00N 40°38' W 074°08'0 0.0
2017-Nov-12 04:30N 40°38' W 074°08'0 0.0
2017-Nov-12 03:59N 40°38' W 074°08'0 0.0
2017-Nov-12 03:30N 40°38' W 074°08'0 0.0
2017-Nov-12 03:00N 40°38' W 074°08'0 0.0
2017-Nov-12 02:20N 40°38' W 074°08'0 0.0
2017-Nov-12 01:06N 40°38' W 074°08'0 0.4
2017-Nov-12 00:59N 40°38' W 074°08'4 7.4
2017-Nov-12 00:30N 40°40' W 074°03'2 3.7
2017-Nov-12 00:00N 40°40' W 074°01'0 0.1
2017-Nov-11 23:31N 40°40' W 074°01'0 0.2
2017-Nov-11 23:01N 40°40' W 074°01'0 0.0
2017-Nov-11 22:30N 40°40' W 074°01'0 0.0
2017-Nov-11 22:00N 40°40' W 074°01'0 0.6
2017-Nov-11 21:30N 40°40' W 074°01'4 8.5
2017-Nov-11 21:00N 40°39' W 074°07'2 5.0
2017-Nov-11 20:30N 40°41' W 074°08'1 2.7
2017-Nov-11 20:00N 40°42' W 074°07'0 0.9
2017-Nov-11 19:30N 40°43' W 074°07'0 0.0
2017-Nov-11 19:00N 40°43' W 074°07'1 1.0
2017-Nov-11 18:30N 40°42' W 074°07'1 1.4
2017-Nov-11 18:00N 40°43' W 074°07'0 0.1
2017-Nov-11 17:30N 40°43' W 074°07'0 0.2
2017-Nov-11 17:01N 40°43' W 074°07'0 0.0
2017-Nov-11 16:30N 40°43' W 074°07'0 0.0
2017-Nov-11 16:00N 40°43' W 074°07'0 0.9
2017-Nov-11 15:30N 40°42' W 074°07'2 4.3
2017-Nov-11 15:00N 40°40' W 074°08'2 4.4
2017-Nov-11 14:30N 40°39' W 074°06'3 6.1
2017-Nov-11 14:00N 40°37' W 074°03'3 6.1
2017-Nov-11 13:30N 40°34' W 074°01'3 6.3
2017-Nov-11 13:00N 40°34' W 073°57'5 7.5
2017-Nov-11 12:19N 40°35' W 073°50'2 3.6
2017-Nov-11 11:50N 40°36' W 073°48'3 0.1
2017-Nov-10 10:50N 40°38' W 073°45'4 5.9
2017-Nov-10 10:11N 40°36' W 073°49'1 6.1
2017-Nov-10 10:00N 40°35' W 073°50'3 6.0
2017-Nov-10 09:30N 40°34' W 073°54'3 5.9
2017-Nov-10 08:59N 40°34' W 073°58'3 6.8
2017-Nov-10 08:30N 40°35' W 074°02'4 8.2
2017-Nov-10 08:00N 40°39' W 074°05'4 8.4
2017-Nov-10 07:30N 40°39' W 074°10'3 6.3
2017-Nov-10 06:57N 40°36' W 074°12'4 1.4
2017-Nov-10 03:55N 40°32' W 074°15'2 4.7
2017-Nov-10 03:24N 40°34' W 074°13'1 3.6
2017-Nov-10 02:59N 40°35' W 074°12'0 0.0
2017-Nov-10 02:29N 40°35' W 074°12'0 0.8
2017-Nov-10 01:53N 40°36' W 074°12'0 0.0
2017-Nov-10 01:24N 40°36' W 074°12'0 0.0
2017-Nov-10 01:00N 40°36' W 074°12'  

Dump ship's entire track history